createdAt,value
2022-08-28T06:52:11.515Z,12.77
2022-08-28T06:58:05.039Z,12.27
2022-08-28T07:03:59.874Z,12.00
2022-08-28T07:09:51.473Z,10.25
2022-08-28T07:15:43.854Z,10.43
2022-08-28T07:21:39.195Z,9.75
2022-08-28T07:27:31.693Z,10.00
2022-08-28T07:33:23.958Z,10.57
2022-08-28T07:39:15.988Z,11.02
2022-08-28T07:45:08.305Z,10.20
2022-08-28T07:51:00.868Z,8.75
2022-08-28T07:56:53.266Z,8.37
2022-08-28T08:08:38.105Z,6.68
2022-08-28T08:14:29.687Z,6.55
2022-08-28T08:20:22.100Z,5.13
2022-08-28T08:26:18.237Z,5.53
2022-08-28T08:32:11.568Z,4.80
2022-08-28T08:38:04.146Z,4.45
2022-08-28T08:44:18.089Z,4.85
2022-08-28T08:50:14.227Z,4.80
2022-08-28T08:56:06.491Z,4.10
2022-08-28T09:02:06.768Z,4.18
2022-08-28T09:08:02.873Z,3.50
2022-08-28T09:14:00.831Z,3.67
2022-08-28T09:19:52.935Z,4.07
2022-08-28T13:19:29.077Z,5.10
2022-08-28T13:25:23.133Z,2.78
2022-08-28T13:31:28.384Z,1.50
2022-08-28T13:37:39.524Z,1.20
2022-08-28T13:43:42.923Z,1.08
2022-08-28T13:49:35.553Z,0.90
2022-08-28T14:01:24.441Z,1.35
2022-08-28T14:07:34.141Z,2.17
2022-08-28T14:13:28.083Z,2.17
2022-08-28T14:25:12.713Z,2.05
2022-08-28T14:36:57.825Z,2.40
2022-08-28T14:42:51.105Z,2.40
2022-08-28T14:48:44.141Z,1.77
2022-08-28T14:54:36.443Z,1.85
2022-08-28T15:47:32.775Z,4.55
2022-08-28T15:53:25.945Z,4.55
2022-08-28T15:59:18.456Z,5.00
2022-08-28T16:05:11.735Z,5.35
2022-08-28T16:16:56.266Z,6.22
2022-08-28T16:22:48.280Z,6.53
2022-08-28T16:28:41.892Z,6.88
2022-08-28T16:34:34.195Z,7.40
2022-08-28T16:40:26.499Z,6.75
2022-08-28T16:46:22.041Z,7.15
2022-08-28T16:52:14.419Z,6.03
2022-08-28T16:58:06.956Z,6.45
2022-08-28T17:03:59.416Z,5.88
2022-08-28T17:09:51.424Z,6.50
2022-08-28T17:15:43.526Z,6.03
2022-08-28T17:21:53.775Z,6.30
2022-08-28T17:27:46.726Z,6.30
2022-08-28T17:33:40.145Z,7.43
2022-08-28T17:39:32.318Z,10.63
2022-08-28T17:45:27.227Z,12.27
2022-08-28T17:51:21.008Z,14.15
2022-08-28T17:57:33.517Z,13.98
2022-08-28T18:03:26.576Z,14.40
2022-08-28T18:09:19.149Z,13.77
2022-08-28T18:15:18.239Z,14.30
2022-08-28T18:21:12.466Z,14.55
2022-08-28T18:27:05.413Z,13.57
2022-08-28T18:32:58.942Z,14.55
2022-08-28T18:38:53.513Z,13.88
2022-08-28T18:44:45.174Z,14.20
2022-08-28T18:50:38.277Z,12.43
2022-08-28T18:56:33.628Z,13.98
2022-08-28T19:02:28.850Z,12.45
2022-08-28T19:08:22.727Z,12.10
2022-08-28T19:14:17.101Z,12.37
2022-08-28T19:20:25.028Z,13.55
2022-08-28T19:26:27.492Z,13.18
2022-08-28T19:32:27.141Z,13.52
2022-08-28T19:38:22.581Z,13.15
2022-08-28T19:44:16.434Z,12.80
2022-08-28T19:50:10.064Z,12.32
2022-08-28T19:56:03.355Z,11.55
2022-08-28T20:01:56.505Z,11.43
2022-08-28T20:07:54.357Z,12.23
2022-08-28T20:13:49.207Z,11.50
2022-08-28T20:19:42.325Z,10.40
2022-08-28T20:25:35.955Z,10.60
2022-08-28T20:31:28.049Z,9.05
2022-08-28T20:37:19.685Z,9.02
2022-08-28T20:43:12.026Z,7.85
2022-08-28T20:49:04.455Z,8.45
2022-08-28T20:54:58.547Z,7.80
2022-08-28T21:00:51.195Z,7.57
2022-08-28T21:06:51.979Z,7.88
2022-08-28T21:12:44.173Z,8.10
2022-08-28T21:18:36.354Z,7.57
2022-08-28T21:24:29.472Z,7.38
2022-08-28T21:30:22.683Z,7.67
2022-08-28T21:36:16.079Z,7.32
2022-08-28T21:42:08.365Z,7.80
2022-08-28T21:48:01.420Z,7.88
2022-08-28T21:53:54.086Z,6.93
2022-08-28T21:59:46.172Z,8.18
2022-08-28T22:05:39.456Z,7.68
2022-08-28T22:11:33.123Z,8.15
2022-08-28T22:17:25.391Z,8.40
2022-08-28T22:23:18.123Z,9.70
2022-08-28T22:29:10.925Z,10.15
2022-08-28T22:35:03.277Z,9.60
2022-08-28T22:40:55.393Z,8.65
2022-08-28T22:46:47.430Z,8.95
2022-08-28T22:52:43.383Z,9.30
2022-08-28T22:58:35.676Z,9.52
2022-08-28T23:04:28.416Z,9.57
2022-08-28T23:10:32.122Z,11.50
2022-08-28T23:16:35.368Z,10.70
2022-08-28T23:22:28.577Z,11.20
2022-08-28T23:28:21.613Z,10.57
2022-08-28T23:34:14.625Z,11.83
2022-08-28T23:40:09.886Z,11.57
2022-08-28T23:46:02.512Z,10.88
2022-08-28T23:51:54.571Z,12.88
2022-08-28T23:57:46.624Z,11.73
